createdAt,value
2023-11-07T00:01:35.991Z,97364.25
2023-11-07T00:04:04.950Z,97371.72
2023-11-07T00:06:33.403Z,97377.22
2023-11-07T00:09:02.537Z,97362.56
2023-11-07T00:11:30.948Z,97370.38
2023-11-07T00:14:00.880Z,97366.91
2023-11-07T00:16:29.785Z,97369.72
2023-11-07T00:18:58.404Z,97360.91
2023-11-07T00:21:27.097Z,97370.06
2023-11-07T00:23:55.760Z,97373.72
2023-11-07T00:26:24.132Z,97379.19
2023-11-07T00:28:52.462Z,97387.97
2023-11-07T00:31:22.393Z,97374.03
2023-11-07T00:33:50.871Z,97386.16
2023-11-07T00:36:19.456Z,97386.16
2023-11-07T00:38:47.886Z,97381.84
2023-11-07T00:41:16.294Z,97377.34
2023-11-07T00:43:45.326Z,97368.56
2023-11-07T00:46:13.729Z,97372.03
2023-11-07T00:48:43.845Z,97370.38
2023-11-07T00:51:13.081Z,97377.66
2023-11-07T00:53:41.591Z,97381.16
2023-11-07T00:56:10.653Z,97386.47
2023-11-07T00:58:39.015Z,97387.50
2023-11-07T01:01:07.972Z,97386.81
2023-11-07T01:03:36.470Z,97387.66
2023-11-07T01:06:07.797Z,97387.81
2023-11-07T01:08:36.579Z,97384.47
2023-11-07T01:11:05.457Z,97386.28
2023-11-07T01:13:34.429Z,97391.75
2023-11-07T01:16:04.178Z,97392.94
2023-11-07T01:18:32.854Z,97396.75
2023-11-07T01:21:01.608Z,97393.41
2023-11-07T01:23:31.455Z,97392.72
2023-11-07T01:26:03.971Z,97397.22
2023-11-07T01:28:32.300Z,97398.19
2023-11-07T01:31:04.787Z,97401.03
2023-11-07T01:33:33.538Z,97399.53
2023-11-07T01:36:02.047Z,97397.03
2023-11-07T01:38:31.884Z,97402.50
2023-11-07T01:41:00.372Z,97405.31
2023-11-07T01:43:29.382Z,97406.63
2023-11-07T01:46:01.736Z,97412.28
2023-11-07T01:48:30.358Z,97410.75
2023-11-07T01:50:59.840Z,97410.91
2023-11-07T01:53:31.298Z,97407.59
2023-11-07T01:55:59.829Z,97410.56
2023-11-07T01:58:29.907Z,97404.56
2023-11-07T02:00:58.606Z,97407.38
2023-11-07T02:03:27.393Z,97403.25
2023-11-07T02:05:56.137Z,97411.34
2023-11-07T02:08:25.386Z,97407.22
2023-11-07T02:10:55.358Z,97425.94
2023-11-07T02:13:23.761Z,97413.66
2023-11-07T02:15:52.180Z,97412.00
2023-11-07T02:18:20.622Z,97422.59
2023-11-07T02:20:49.303Z,97417.47
2023-11-07T02:23:36.259Z,97415.81
2023-11-07T02:26:05.272Z,97417.63
2023-11-07T02:28:34.449Z,97407.00
2023-11-07T02:31:02.778Z,97398.19
2023-11-07T02:33:31.418Z,97398.34
2023-11-07T02:36:02.529Z,97391.84
2023-11-07T02:38:32.519Z,97402.00
2023-11-07T02:41:00.876Z,97393.31
2023-11-07T02:43:29.190Z,97391.69
2023-11-07T02:45:57.710Z,97392.69
2023-11-07T02:48:26.106Z,97396.44
2023-11-07T02:50:54.605Z,97394.97
2023-11-07T02:53:23.867Z,97394.28
2023-11-07T02:55:53.709Z,97386.47
2023-11-07T02:58:22.243Z,97398.25
2023-11-07T03:00:51.024Z,97398.41
2023-11-07T03:03:20.089Z,97396.91
2023-11-07T03:05:48.591Z,97402.53
2023-11-07T03:08:16.988Z,97398.38
2023-11-07T03:10:45.813Z,97401.34
2023-11-07T03:13:16.021Z,97399.97
2023-11-07T03:15:45.337Z,97406.03
2023-11-07T03:18:14.145Z,97406.97
2023-11-07T03:20:43.665Z,97411.25
2023-11-07T03:23:12.067Z,97414.81
2023-11-07T03:25:40.626Z,97420.88
2023-11-07T03:28:09.678Z,97427.50
2023-11-07T03:30:39.430Z,97416.66
2023-11-07T03:33:07.928Z,97429.25
2023-11-07T03:35:36.554Z,97422.56
2023-11-07T03:38:05.535Z,97422.22
2023-11-07T03:40:33.886Z,97420.81
2023-11-07T03:43:02.272Z,97422.28
2023-11-07T03:45:31.060Z,97420.06
2023-11-07T03:48:04.446Z,97418.72
2023-11-07T03:50:33.069Z,97420.97
2023-11-07T03:53:01.934Z,97420.63
2023-11-07T03:55:30.458Z,97424.50
2023-11-07T03:57:58.901Z,97416.84
2023-11-07T04:00:27.313Z,97419.13
2023-11-07T04:02:56.190Z,97426.53
2023-11-07T04:05:26.112Z,97416.22
2023-11-07T04:07:57.035Z,97431.44
2023-11-07T04:10:25.478Z,97424.63
2023-11-07T04:12:54.189Z,97420.47
2023-11-07T04:15:25.485Z,97423.41
2023-11-07T04:17:54.521Z,97427.31
2023-11-07T04:20:24.223Z,97428.44
2023-11-07T04:22:55.658Z,97428.06
2023-11-07T04:25:24.362Z,97434.47
2023-11-07T04:27:53.193Z,97434.47
2023-11-07T04:30:22.046Z,97445.22
2023-11-07T04:32:50.661Z,97444.56
2023-11-07T04:35:19.359Z,97431.75
2023-11-07T04:37:50.563Z,97436.91
2023-11-07T04:40:20.434Z,97429.25
2023-11-07T04:42:48.913Z,97436.06
2023-11-07T04:45:20.432Z,97429.78
2023-11-07T04:47:50.587Z,97423.53
2023-11-07T04:50:19.202Z,97423.38
2023-11-07T04:52:48.509Z,97430.31
2023-11-07T04:55:17.388Z,97421.41
2023-11-07T04:57:47.422Z,97414.16
2023-11-07T05:00:17.182Z,97418.44
2023-11-07T05:02:47.123Z,97423.75
2023-11-07T05:05:15.982Z,97424.44
2023-11-07T05:07:46.705Z,97419.97
2023-11-07T05:10:15.983Z,97425.09
2023-11-07T05:12:44.471Z,97424.16
2023-11-07T05:15:14.428Z,97424.16
2023-11-07T05:17:43.446Z,97429.44
2023-11-07T05:20:15.146Z,97426.81
2023-11-07T05:22:43.854Z,97425.09
2023-11-07T05:25:15.439Z,97433.75
2023-11-07T05:27:43.848Z,97434.59
2023-11-07T05:30:15.662Z,97435.41
2023-11-07T05:32:48.675Z,97437.09
2023-11-07T05:35:17.429Z,97437.09
2023-11-07T05:37:46.771Z,97443.06
2023-11-07T05:40:17.061Z,97445.56
2023-11-07T05:42:45.917Z,97446.25
2023-11-07T05:45:16.261Z,97447.91
2023-11-07T05:47:45.514Z,97451.41
2023-11-07T05:50:14.286Z,97453.06
2023-11-07T05:52:43.130Z,97447.59
2023-11-07T05:55:12.026Z,97449.31
2023-11-07T05:57:40.553Z,97448.31
2023-11-07T06:00:12.478Z,97442.88
2023-11-07T06:02:42.803Z,97443.72
2023-11-07T06:05:11.626Z,97452.47
2023-11-07T06:07:40.457Z,97449.66
2023-11-07T06:10:09.880Z,97455.09
2023-11-07T06:12:38.392Z,97454.16
2023-11-07T06:15:08.783Z,97448.84
2023-11-07T06:17:37.416Z,97457.47
2023-11-07T06:20:09.770Z,97463.59
2023-11-07T06:22:39.147Z,97471.41
2023-11-07T06:25:10.685Z,97468.91
2023-11-07T06:27:39.145Z,97457.47
2023-11-07T06:30:10.915Z,97454.81
2023-11-07T06:32:39.992Z,97461.94
2023-11-07T06:35:11.669Z,97460.25
2023-11-07T06:37:40.335Z,97457.59
2023-11-07T06:40:15.609Z,97456.78
2023-11-07T06:42:47.162Z,97461.78
2023-11-07T06:45:16.571Z,97463.59
2023-11-07T06:47:47.324Z,97453.72
2023-11-07T06:50:18.028Z,97458.84
2023-11-07T06:52:51.927Z,97464.53
2023-11-07T06:55:26.118Z,97468.28
2023-11-07T06:57:56.341Z,97466.69
2023-11-07T07:00:27.452Z,97466.78
2023-11-07T07:02:58.326Z,97467.41
2023-11-07T07:05:29.261Z,97461.06
2023-11-07T07:07:58.216Z,97466.94
2023-11-07T07:10:27.311Z,97469.03
2023-11-07T07:12:55.976Z,97470.31
2023-11-07T07:15:24.972Z,97466.28
2023-11-07T07:17:53.660Z,97466.53
2023-11-07T07:20:22.221Z,97473.66
2023-11-07T07:22:54.832Z,97475.59
2023-11-07T07:25:28.328Z,97474.00
2023-11-07T07:27:57.138Z,97476.59
2023-11-07T07:30:27.717Z,97480.47
2023-11-07T07:32:57.275Z,97474.00
2023-11-07T07:35:30.367Z,97474.56
2023-11-07T07:38:04.187Z,97468.28
2023-11-07T07:40:33.607Z,97470.19
2023-11-07T07:43:10.496Z,97472.34
2023-11-07T07:45:41.077Z,97474.34
2023-11-07T07:48:09.745Z,97473.88
2023-11-07T07:50:43.312Z,97474.03
2023-11-07T07:53:16.369Z,97476.50
2023-11-07T07:55:45.740Z,97480.81
2023-11-07T07:58:20.358Z,97471.81
2023-11-07T08:00:51.033Z,97480.44
2023-11-07T08:03:19.611Z,97464.19
2023-11-07T08:05:48.458Z,97465.16
2023-11-07T08:08:18.993Z,97468.38
2023-11-07T08:10:50.040Z,97454.59
2023-11-07T08:13:19.924Z,97452.88
2023-11-07T08:15:51.193Z,97457.09
2023-11-07T08:18:22.867Z,97462.31
2023-11-07T08:20:52.510Z,97455.00
2023-11-07T08:23:22.342Z,97461.03
2023-11-07T08:25:51.518Z,97462.50
2023-11-07T08:28:19.828Z,97460.53
2023-11-07T08:30:48.348Z,97467.56
2023-11-07T08:33:17.065Z,97454.81
2023-11-07T08:35:45.574Z,97461.63
2023-11-07T08:38:14.070Z,97458.91
2023-11-07T08:40:43.845Z,97454.75
2023-11-07T08:43:13.749Z,97455.31
2023-11-07T08:45:42.133Z,97454.81
2023-11-07T08:48:11.586Z,97462.09
2023-11-07T08:50:40.403Z,97464.75
2023-11-07T08:53:08.847Z,97466.38
2023-11-07T08:55:37.723Z,97463.50
2023-11-07T08:58:07.827Z,97466.75
2023-11-07T09:00:36.243Z,97465.81
2023-11-07T09:03:10.068Z,97472.44
2023-11-07T09:05:39.223Z,97470.09
2023-11-07T09:08:07.831Z,97472.47
2023-11-07T09:10:36.385Z,97482.94
2023-11-07T09:13:08.640Z,97474.63
2023-11-07T09:15:37.402Z,97480.91
2023-11-07T09:18:07.626Z,97475.56
2023-11-07T09:20:37.496Z,97479.31
2023-11-07T09:23:06.312Z,97478.56
2023-11-07T09:25:34.760Z,97478.56
2023-11-07T09:28:03.114Z,97485.28
2023-11-07T09:30:34.415Z,97479.09
2023-11-07T09:33:07.640Z,97479.88
2023-11-07T09:35:37.526Z,97482.13
2023-11-07T09:38:06.033Z,97473.78
2023-11-07T09:40:34.626Z,97474.38
2023-11-07T09:43:04.203Z,97482.00
2023-11-07T09:45:37.609Z,97476.94
2023-11-07T09:48:11.206Z,97478.78
2023-11-07T09:50:45.162Z,97477.13
2023-11-07T09:53:16.345Z,97477.97
2023-11-07T09:55:45.504Z,97476.31
2023-11-07T09:58:23.819Z,97477.97
2023-11-07T10:00:54.847Z,97479.63
2023-11-07T10:03:24.691Z,97471.13
2023-11-07T10:05:54.298Z,97467.56
2023-11-07T10:08:26.458Z,97464.00
2023-11-07T10:11:10.870Z,97469.81
2023-11-07T10:13:39.410Z,97474.16
2023-11-07T10:18:49.541Z,97467.56
2023-11-07T10:21:32.360Z,97470.44
2023-11-07T10:24:01.290Z,97466.72
2023-11-07T10:26:30.446Z,97467.72
2023-11-07T10:29:18.170Z,97466.41
2023-11-07T10:32:01.976Z,97473.75
2023-11-07T10:34:31.524Z,97464.16
2023-11-07T10:37:01.222Z,97466.91
2023-11-07T10:39:31.814Z,97460.84
2023-11-07T10:42:19.298Z,97458.22
2023-11-07T10:44:50.396Z,97449.66
2023-11-07T10:47:24.179Z,97449.56
2023-11-07T10:49:54.194Z,97451.31
2023-11-07T10:52:23.081Z,97437.84
2023-11-07T10:54:51.584Z,97440.66
2023-11-07T10:57:28.093Z,97427.06
2023-11-07T11:00:13.531Z,97432.06
2023-11-07T11:02:51.161Z,97439.75
2023-11-07T11:05:21.182Z,97431.19
2023-11-07T11:07:53.844Z,97441.59
2023-11-07T11:10:28.855Z,97439.47
2023-11-07T11:12:57.853Z,97432.63
2023-11-07T11:15:27.204Z,97429.97
2023-11-07T11:18:03.882Z,97432.81
2023-11-07T11:20:42.122Z,97429.03
2023-11-07T11:23:19.388Z,97428.56
2023-11-07T11:26:07.972Z,97429.09
2023-11-07T11:28:40.397Z,97427.81
2023-11-07T11:31:09.545Z,97427.50
2023-11-07T11:33:40.436Z,97430.72
2023-11-07T11:36:38.659Z,97434.47
2023-11-07T11:39:47.897Z,97433.34
2023-11-07T11:42:17.380Z,97437.88
2023-11-07T11:44:45.933Z,97430.59
2023-11-07T11:47:50.976Z,97435.09
2023-11-07T11:50:21.895Z,97431.13
2023-11-07T11:52:51.499Z,97428.63
2023-11-07T11:55:20.020Z,97425.97
2023-11-07T11:58:17.267Z,97421.78
2023-11-07T12:00:52.303Z,97425.84
2023-11-07T12:03:21.281Z,97424.81
2023-11-07T12:06:09.282Z,97412.69
2023-11-07T12:08:40.526Z,97409.53
2023-11-07T12:11:09.386Z,97413.53
2023-11-07T12:13:38.373Z,97406.72
2023-11-07T12:16:21.248Z,97404.28
2023-11-07T12:18:52.600Z,97405.75
2023-11-07T12:21:30.204Z,97402.47
2023-11-07T12:24:02.789Z,97399.13
2023-11-07T12:26:42.950Z,97401.78
2023-11-07T12:29:11.369Z,97396.63
2023-11-07T12:31:40.863Z,97399.97
2023-11-07T12:34:10.517Z,97398.66
2023-11-07T12:36:42.132Z,97397.81
2023-11-07T12:39:11.218Z,97390.66
2023-11-07T12:41:40.332Z,97400.84
2023-11-07T12:44:17.639Z,97396.53
2023-11-07T12:46:47.257Z,97394.50
2023-11-07T12:49:20.156Z,97395.88
2023-11-07T12:51:50.526Z,97391.19
2023-11-07T12:54:27.705Z,97389.88
2023-11-07T12:56:56.544Z,97384.53
2023-11-07T12:59:24.960Z,97384.19
2023-11-07T13:01:53.851Z,97386.03
2023-11-07T13:04:22.455Z,97383.19
2023-11-07T13:06:56.929Z,97378.22
2023-11-07T13:09:32.114Z,97377.06
2023-11-07T13:12:11.510Z,97380.56
2023-11-07T13:14:40.745Z,97378.44
2023-11-07T13:17:09.779Z,97379.63
2023-11-07T13:19:39.449Z,97376.31
2023-11-07T13:22:11.362Z,97377.13
2023-11-07T13:24:40.113Z,97381.16
2023-11-07T13:27:09.462Z,97382.34
2023-11-07T13:29:37.924Z,97383.69
2023-11-07T13:32:07.235Z,97384.34
2023-11-07T13:34:36.593Z,97372.38
2023-11-07T13:37:05.876Z,97376.84
2023-11-07T13:39:36.378Z,97381.38
2023-11-07T13:42:07.689Z,97374.72
2023-11-07T13:44:36.080Z,97377.56
2023-11-07T13:47:04.942Z,97376.75
2023-11-07T13:49:35.475Z,97374.25
2023-11-07T13:52:05.594Z,97372.13
2023-11-07T13:54:35.674Z,97388.94
2023-11-07T13:57:04.840Z,97386.81
2023-11-07T13:59:33.177Z,97383.97
2023-11-07T14:02:01.743Z,97385.78
2023-11-07T14:04:30.351Z,97384.50
2023-11-07T14:06:58.774Z,97377.66
2023-11-07T14:09:27.654Z,97384.16
2023-11-07T14:11:58.937Z,97368.19
2023-11-07T14:14:30.317Z,97367.69
2023-11-07T14:16:58.861Z,97361.75
2023-11-07T14:19:27.389Z,97367.09
2023-11-07T14:21:56.478Z,97366.78
2023-11-07T14:24:24.919Z,97364.91
2023-11-07T14:26:55.342Z,97363.34
2023-11-07T14:29:38.892Z,97369.97
2023-11-07T14:32:15.668Z,97368.31
2023-11-07T14:34:44.575Z,97361.88
2023-11-07T14:37:13.107Z,97367.88
2023-11-07T14:39:41.583Z,97366.91
2023-11-07T14:42:10.100Z,97367.59
2023-11-07T14:44:39.936Z,97368.25
2023-11-07T14:47:08.989Z,97361.47
2023-11-07T14:49:37.435Z,97361.75
2023-11-07T14:52:09.896Z,97362.78
2023-11-07T14:54:38.537Z,97368.91
2023-11-07T14:57:09.574Z,97369.41
2023-11-07T14:59:39.448Z,97363.75
2023-11-07T15:02:14.718Z,97365.91
2023-11-07T15:04:52.328Z,97368.56
2023-11-07T15:07:20.707Z,97364.41
2023-11-07T15:09:49.222Z,97367.75
2023-11-07T15:12:17.748Z,97368.72
2023-11-07T15:14:47.529Z,97369.56
2023-11-07T15:17:15.980Z,97367.59
2023-11-07T15:19:44.275Z,97361.47
2023-11-07T15:22:12.648Z,97371.25
2023-11-07T15:24:40.980Z,97375.09
2023-11-07T15:27:09.918Z,97373.44
2023-11-07T15:29:39.537Z,97372.28
2023-11-07T15:32:12.097Z,97361.81
2023-11-07T15:34:40.496Z,97375.28
2023-11-07T15:37:08.915Z,97374.44
2023-11-07T15:39:37.233Z,97380.94
2023-11-07T15:42:06.847Z,97380.44
2023-11-07T15:44:35.472Z,97379.59
2023-11-07T15:47:04.022Z,97384.09
2023-11-07T15:49:34.072Z,97377.94
2023-11-07T15:52:02.567Z,97384.91
2023-11-07T15:54:30.912Z,97382.75
2023-11-07T15:56:59.386Z,97384.59
2023-11-07T15:59:27.801Z,97390.88
2023-11-07T16:01:56.388Z,97388.03
2023-11-07T16:04:24.846Z,97391.03
2023-11-07T16:06:55.275Z,97395.53
2023-11-07T16:09:23.925Z,97387.72
2023-11-07T16:11:52.405Z,97381.03
2023-11-07T16:14:20.732Z,97383.38
2023-11-07T16:16:49.366Z,97379.38
2023-11-07T16:19:18.633Z,97375.38
2023-11-07T16:21:47.007Z,97386.50
2023-11-07T16:24:17.164Z,97390.34
2023-11-07T16:26:45.559Z,97386.31
2023-11-07T16:29:18.257Z,97384.81
2023-11-07T16:31:48.999Z,97386.47
2023-11-07T16:34:17.436Z,97384.47
2023-11-07T16:36:46.697Z,97393.09
2023-11-07T16:39:16.584Z,97389.91
2023-11-07T16:41:47.258Z,97399.47
2023-11-07T16:44:15.807Z,97391.34
2023-11-07T16:46:44.366Z,97402.91
2023-11-07T16:49:12.925Z,97408.56
2023-11-07T16:51:43.854Z,97410.03
2023-11-07T16:54:12.360Z,97414.88
2023-11-07T16:56:43.180Z,97410.19
2023-11-07T16:59:12.220Z,97414.47
2023-11-07T17:01:43.555Z,97409.28
2023-11-07T17:04:12.215Z,97413.75
2023-11-07T17:06:40.657Z,97418.22
2023-11-07T17:09:10.363Z,97412.25
2023-11-07T17:11:38.997Z,97419.53
2023-11-07T17:14:11.021Z,97420.84
2023-11-07T17:16:40.192Z,97418.34
2023-11-07T17:19:08.742Z,97420.31
2023-11-07T17:21:41.403Z,97416.31
2023-11-07T17:24:10.886Z,97423.13
2023-11-07T17:26:39.856Z,97418.13
2023-11-07T17:29:11.382Z,97432.56
2023-11-07T17:31:40.104Z,97433.78
2023-11-07T17:34:09.245Z,97447.41
2023-11-07T17:36:38.211Z,97449.91
2023-11-07T17:39:14.774Z,97459.59
2023-11-07T17:41:46.295Z,97457.31
2023-11-07T17:44:16.495Z,97459.66
2023-11-07T17:46:46.166Z,97463.66
2023-11-07T17:49:17.373Z,97467.47
2023-11-07T17:51:47.224Z,97472.34
2023-11-07T17:54:17.282Z,97468.41
2023-11-07T17:56:45.745Z,97468.09
2023-11-07T17:59:15.884Z,97474.91
2023-11-07T18:01:44.411Z,97460.47
2023-11-07T18:04:14.545Z,97467.16
2023-11-07T18:06:44.524Z,97464.34
2023-11-07T18:09:14.508Z,97464.00
2023-11-07T18:11:46.175Z,97454.22
2023-11-07T18:14:17.968Z,97459.53
2023-11-07T18:16:46.271Z,97458.53
2023-11-07T18:19:15.025Z,97468.19
2023-11-07T18:21:47.620Z,97467.50
2023-11-07T18:24:16.895Z,97464.00
2023-11-07T18:26:49.599Z,97462.19
2023-11-07T18:29:20.466Z,97467.50
2023-11-07T18:31:49.099Z,97456.03
2023-11-07T18:34:23.254Z,97462.19
2023-11-07T18:37:01.324Z,97459.84
2023-11-07T18:39:31.071Z,97460.53
2023-11-07T18:42:00.354Z,97460.69
2023-11-07T18:44:32.367Z,97463.34
2023-11-07T18:47:00.946Z,97466.00
2023-11-07T18:49:29.916Z,97461.84
2023-11-07T18:51:58.900Z,97479.28
2023-11-07T18:54:28.318Z,97475.78
2023-11-07T18:56:58.496Z,97477.63
2023-11-07T18:59:36.385Z,97481.09
2023-11-07T19:02:07.768Z,97496.38
2023-11-07T19:04:38.440Z,97495.69
2023-11-07T19:07:08.570Z,97488.34
2023-11-07T19:09:37.594Z,97505.47
2023-11-07T19:12:07.896Z,97507.28
2023-11-07T19:14:40.525Z,97518.88
2023-11-07T19:17:09.366Z,97518.88
2023-11-07T19:19:38.299Z,97527.84
2023-11-07T19:22:06.948Z,97525.34
2023-11-07T19:24:35.444Z,97527.31
2023-11-07T19:27:04.596Z,97532.63
2023-11-07T19:29:33.780Z,97538.94
2023-11-07T19:32:04.013Z,97552.22
2023-11-07T19:34:32.608Z,97550.56
2023-11-07T19:37:01.156Z,97546.22
2023-11-07T19:39:30.647Z,97542.91
2023-11-07T19:42:03.662Z,97551.66
2023-11-07T19:44:32.441Z,97550.16
2023-11-07T19:47:02.208Z,97556.47
2023-11-07T19:49:30.674Z,97558.28
2023-11-07T19:51:59.936Z,97563.59
2023-11-07T19:54:28.387Z,97560.94
2023-11-07T19:56:56.870Z,97564.44
2023-11-07T19:59:25.233Z,97571.41
2023-11-07T20:01:53.846Z,97572.41
2023-11-07T20:04:25.554Z,97570.88
2023-11-07T20:06:54.046Z,97576.03
2023-11-07T20:09:22.929Z,97574.53
2023-11-07T20:11:51.508Z,97580.25
2023-11-07T20:14:19.949Z,97586.41
2023-11-07T20:16:48.484Z,97586.72
2023-11-07T20:19:17.199Z,97580.03
2023-11-07T20:21:48.369Z,97576.72
2023-11-07T20:24:16.947Z,97583.97
2023-11-07T20:26:45.774Z,97589.28
2023-11-07T20:29:14.216Z,97574.22
2023-11-07T20:31:45.471Z,97578.53
2023-11-07T20:34:13.932Z,97575.88
2023-11-07T20:36:49.199Z,97589.97
2023-11-07T20:39:17.800Z,97582.97
2023-11-07T20:41:46.775Z,97583.97
2023-11-07T20:44:15.157Z,97586.78
2023-11-07T20:46:43.575Z,97590.44
2023-11-07T20:49:13.438Z,97588.75
2023-11-07T20:51:42.225Z,97592.41
2023-11-07T20:54:12.394Z,97596.84
2023-11-07T20:56:41.008Z,97593.53
2023-11-07T20:59:13.221Z,97595.50
2023-11-07T21:01:42.483Z,97589.53
2023-11-07T21:04:11.125Z,97587.84
2023-11-07T21:06:39.703Z,97587.03
2023-11-07T21:09:09.787Z,97594.16
2023-11-07T21:11:43.573Z,97598.75
2023-11-07T21:14:12.427Z,97602.41
2023-11-07T21:16:40.830Z,97600.59
2023-11-07T21:19:11.983Z,97598.91
2023-11-07T21:21:40.468Z,97604.06
2023-11-07T21:24:09.383Z,97598.09
2023-11-07T21:26:39.118Z,97610.38
2023-11-07T21:29:08.222Z,97613.19
2023-11-07T21:31:37.412Z,97622.28
2023-11-07T21:34:07.845Z,97612.63
2023-11-07T21:36:36.271Z,97625.22
2023-11-07T21:39:07.837Z,97623.84
2023-11-07T21:41:36.239Z,97621.50
2023-11-07T21:44:06.348Z,97630.59
2023-11-07T21:46:35.060Z,97628.25
2023-11-07T21:49:03.647Z,97628.53
2023-11-07T21:51:32.839Z,97632.34
2023-11-07T21:54:03.426Z,97640.59
2023-11-07T21:56:31.948Z,97632.09
2023-11-07T21:59:00.447Z,97638.81
2023-11-07T22:01:31.103Z,97644.41
2023-11-07T22:03:59.423Z,97645.69
2023-11-07T22:06:27.815Z,97647.94
2023-11-07T22:08:56.208Z,97646.75
2023-11-07T22:11:25.415Z,97651.47
2023-11-07T22:13:55.176Z,97648.56
2023-11-07T22:16:23.565Z,97657.81
2023-11-07T22:18:53.365Z,97652.94
2023-11-07T22:21:22.624Z,97650.59
2023-11-07T22:23:54.121Z,97654.38
2023-11-07T22:26:22.605Z,97658.13
2023-11-07T22:28:51.094Z,97666.22
2023-11-07T22:31:19.540Z,97670.84
2023-11-07T22:33:48.018Z,97667.34
2023-11-07T22:36:17.918Z,97675.28
2023-11-07T22:38:46.514Z,97672.94
2023-11-07T22:41:15.210Z,97672.25
2023-11-07T22:43:43.884Z,97675.06
2023-11-07T22:46:12.340Z,97671.56
2023-11-07T22:48:41.365Z,97683.00
2023-11-07T22:51:09.827Z,97677.81
2023-11-07T22:53:39.733Z,97687.47
2023-11-07T22:56:08.653Z,97685.75
2023-11-07T22:58:37.245Z,97686.59
2023-11-07T23:01:05.818Z,97691.75
2023-11-07T23:03:34.209Z,97693.44
2023-11-07T23:06:02.980Z,97688.16
2023-11-07T23:08:31.371Z,97695.13
2023-11-07T23:11:01.448Z,97698.06
2023-11-07T23:13:30.626Z,97702.22
2023-11-07T23:15:58.943Z,97703.06
2023-11-07T23:18:27.369Z,97707.50
2023-11-07T23:20:55.777Z,97710.16
2023-11-07T23:23:26.932Z,97703.22
2023-11-07T23:25:55.309Z,97705.72
2023-11-07T23:28:25.113Z,97700.69
2023-11-07T23:30:53.520Z,97704.06
2023-11-07T23:33:21.964Z,97702.06
2023-11-07T23:35:50.461Z,97703.75
2023-11-07T23:38:18.790Z,97697.63
2023-11-07T23:40:50.719Z,97702.78
2023-11-07T23:43:21.423Z,97702.78
2023-11-07T23:45:51.377Z,97699.13
2023-11-07T23:48:19.829Z,97706.09
2023-11-07T23:50:48.339Z,97706.94
2023-11-07T23:53:17.698Z,97710.28
2023-11-07T23:55:47.187Z,97709.44
2023-11-07T23:58:16.123Z,97707.78
